Time;durP1;ratioP1;P1;durP2;ratioP2;P2;SDS_P1;SDS_P2;PMS_P1;PMS_P2;Temp;Humidity;BMP_temperature;BMP_pressure;BME280_temperature;BME280_humidity;BME280_pressure;Samples;Min_cycle;Max_cycle;Signal;HPM_P1;HPM_P2
2023/10/24 00:01:03;;;;;;;5.85;3.05;;;11.50;99.90;;;;;;5061590;28;20127;-86
2023/10/24 00:03:29;;;;;;;5.90;3.83;;;11.50;99.90;;;;;;5061029;28;20289;-86
2023/10/24 00:05:55;;;;;;;7.00;3.33;;;11.50;99.90;;;;;;5061656;28;20024;-86
2023/10/24 00:08:20;;;;;;;6.65;2.95;;;11.50;99.90;;;;;;5062141;28;20031;-86
2023/10/24 00:10:46;;;;;;;10.35;4.00;;;11.50;99.90;;;;;;5062267;28;20024;-86
2023/10/24 00:13:12;;;;;;;10.80;3.10;;;11.50;99.90;;;;;;5063424;28;20477;-86
2023/10/24 00:15:37;;;;;;;10.52;4.25;;;11.50;99.90;;;;;;5065184;28;20073;-86
2023/10/24 00:18:07;;;;;;;8.02;3.03;;;11.50;99.90;;;;;;5057879;28;20449;-85
2023/10/24 00:20:34;;;;;;;9.68;3.13;;;11.50;99.90;;;;;;5056790;28;20036;-86
2023/10/24 00:22:59;;;;;;;17.08;3.15;;;11.50;99.90;;;;;;5055787;28;20503;-87
2023/10/24 00:25:28;;;;;;;8.73;3.00;;;11.50;99.90;;;;;;5056041;28;20248;-85
2023/10/24 00:27:54;;;;;;;8.75;3.40;;;11.50;99.90;;;;;;5064449;28;20562;-86
2023/10/24 00:30:19;;;;;;;8.05;2.95;;;11.60;99.90;;;;;;5067296;28;20032;-87
2023/10/24 00:32:49;;;;;;;12.98;3.13;;;11.60;99.90;;;;;;5067219;28;20048;-86
2023/10/24 00:35:15;;;;;;;7.53;3.00;;;11.60;99.90;;;;;;5067112;28;20033;-86
2023/10/24 00:37:41;;;;;;;15.35;2.70;;;11.60;99.90;;;;;;5065908;28;20397;-85
2023/10/24 00:40:07;;;;;;;9.43;2.80;;;11.60;99.90;;;;;;5067828;28;20032;-86
2023/10/24 00:42:33;;;;;;;15.82;4.25;;;11.60;99.90;;;;;;5066464;28;20039;-85
2023/10/24 00:44:59;;;;;;;8.05;2.92;;;11.60;99.90;;;;;;5064278;28;20021;-85
2023/10/24 00:47:25;;;;;;;6.95;3.20;;;11.60;99.90;;;;;;5066886;28;20021;-85
2023/10/24 00:49:52;;;;;;;4.47;2.20;;;11.60;99.90;;;;;;5063525;28;20492;-86
2023/10/24 00:52:18;;;;;;;11.55;4.15;;;11.60;99.90;;;;;;5059550;28;20259;-86
2023/10/24 00:54:44;;;;;;;6.18;2.63;;;11.60;99.90;;;;;;5067183;28;20547;-86
2023/10/24 00:57:12;;;;;;;7.22;2.88;;;11.60;99.90;;;;;;5066250;28;20048;-86
2023/10/24 00:59:40;;;;;;;6.35;2.70;;;11.60;99.90;;;;;;5066954;28;20029;-85
2023/10/24 01:02:06;;;;;;;8.05;2.85;;;11.60;99.90;;;;;;5065970;28;20107;-86
2023/10/24 01:04:33;;;;;;;10.00;3.03;;;11.50;99.90;;;;;;5066776;28;20028;-86
2023/10/24 01:06:59;;;;;;;10.48;2.72;;;11.50;99.90;;;;;;5063467;28;20445;-86
2023/10/24 01:09:25;;;;;;;6.43;3.10;;;11.50;99.90;;;;;;5063595;28;20056;-86
2023/10/24 01:11:53;;;;;;;7.93;2.80;;;11.50;99.90;;;;;;5060947;28;20021;-86
2023/10/24 01:14:19;;;;;;;10.38;3.50;;;11.40;99.90;;;;;;5060361;28;20079;-86
2023/10/24 01:16:45;;;;;;;6.05;2.50;;;11.50;99.90;;;;;;5065136;28;20056;-86
2023/10/24 01:19:12;;;;;;;8.18;2.67;;;11.40;99.90;;;;;;5060392;28;20480;-85
2023/10/24 01:21:47;;;;;;;10.57;3.42;;;11.40;99.90;;;;;;5065423;28;20024;-86
2023/10/24 01:24:20;;;;;;;12.80;3.70;;;11.40;99.90;;;;;;5064636;28;20470;-87
2023/10/24 01:26:46;;;;;;;8.15;2.83;;;11.50;99.90;;;;;;5058037;28;20105;-85
2023/10/24 01:29:12;;;;;;;7.20;3.15;;;11.50;99.90;;;;;;5060227;28;20483;-85
2023/10/24 01:31:38;;;;;;;9.15;2.95;;;11.50;99.90;;;;;;5059013;28;20041;-85
2023/10/24 01:34:04;;;;;;;8.73;2.65;;;11.50;99.90;;;;;;5065688;28;20519;-84
2023/10/24 01:36:30;;;;;;;7.07;3.17;;;11.50;99.90;;;;;;5065157;28;20024;-85
2023/10/24 01:38:56;;;;;;;7.82;3.75;;;11.50;99.90;;;;;;5061147;28;20527;-86
2023/10/24 01:41:21;;;;;;;11.50;3.70;;;11.50;99.90;;;;;;5060574;28;20116;-86
2023/10/24 01:43:47;;;;;;;16.10;3.38;;;11.50;99.90;;;;;;5065330;28;20074;-85
2023/10/24 01:46:16;;;;;;;9.57;3.13;;;11.50;99.90;;;;;;5055920;28;20073;-85
2023/10/24 01:48:45;;;;;;;8.18;3.58;;;11.50;99.90;;;;;;5062000;28;20036;-88
2023/10/24 01:51:10;;;;;;;11.00;3.83;;;11.50;99.90;;;;;;5062072;28;20473;-85
2023/10/24 01:53:36;;;;;;;6.75;3.13;;;11.50;99.90;;;;;;5057163;28;20060;-85
2023/10/24 01:56:02;;;;;;;9.00;3.28;;;11.40;99.90;;;;;;5062757;28;20032;-86
2023/10/24 01:58:28;;;;;;;11.60;3.83;;;11.40;99.90;;;;;;5062269;28;20029;-85
2023/10/24 02:00:54;;;;;;;12.82;3.28;;;11.40;99.90;;;;;;5066798;28;21019;-86
2023/10/24 02:03:22;;;;;;;10.15;3.35;;;11.40;99.90;;;;;;5064855;28;20031;-85
2023/10/24 02:05:48;;;;;;;22.25;4.47;;;11.40;99.90;;;;;;5062512;28;20029;-85
2023/10/24 02:08:13;;;;;;;9.20;3.85;;;11.40;99.90;;;;;;5064197;28;20021;-84
2023/10/24 02:10:39;;;;;;;9.40;3.50;;;11.40;99.90;;;;;;5070183;28;20429;-85
2023/10/24 02:13:05;;;;;;;20.20;4.70;;;11.50;99.90;;;;;;5066878;28;20401;-86
2023/10/24 02:15:31;;;;;;;9.70;3.60;;;11.50;99.90;;;;;;5069693;28;20028;-84
2023/10/24 02:17:56;;;;;;;9.30;3.42;;;11.60;99.90;;;;;;5067336;28;20607;-87
2023/10/24 02:20:22;;;;;;;14.30;4.25;;;11.60;99.90;;;;;;5068591;28;20020;-83
2023/10/24 02:22:49;;;;;;;16.08;3.95;;;11.70;99.90;;;;;;5069492;28;20453;-85
2023/10/24 02:25:15;;;;;;;9.52;3.78;;;11.70;99.90;;;;;;5069374;28;20238;-88
2023/10/24 02:27:40;;;;;;;11.13;3.78;;;11.80;99.90;;;;;;5065824;28;20366;-85
2023/10/24 02:30:06;;;;;;;17.98;4.40;;;11.70;99.90;;;;;;5063508;28;20499;-86
2023/10/24 02:32:32;;;;;;;7.38;3.03;;;11.80;99.90;;;;;;5063710;28;20364;-85
2023/10/24 02:34:58;;;;;;;12.80;3.83;;;11.80;99.90;;;;;;5068998;28;20264;-85
2023/10/24 02:37:23;;;;;;;19.25;4.38;;;11.80;99.90;;;;;;5065671;28;20067;-87
2023/10/24 02:39:49;;;;;;;10.63;3.58;;;11.90;99.90;;;;;;5069610;28;20035;-85
2023/10/24 02:42:15;;;;;;;14.85;3.53;;;12.00;99.90;;;;;;5062364;28;20029;-85
2023/10/24 02:44:40;;;;;;;12.35;2.97;;;12.00;99.90;;;;;;5064370;28;20115;-84
2023/10/24 02:47:06;;;;;;;8.95;3.58;;;11.90;99.90;;;;;;5053068;28;20032;-85
2023/10/24 02:49:32;;;;;;;15.25;4.40;;;11.90;99.90;;;;;;5064108;28;20546;-85
2023/10/24 02:51:58;;;;;;;11.57;3.38;;;11.90;99.90;;;;;;5064030;28;20021;-86
2023/10/24 02:54:23;;;;;;;10.18;3.90;;;11.90;99.90;;;;;;5063988;28;20044;-85
2023/10/24 02:56:50;;;;;;;16.58;3.50;;;12.00;99.90;;;;;;5055969;28;20078;-83
2023/10/24 02:59:16;;;;;;;11.10;3.20;;;12.00;99.90;;;;;;5065111;28;20081;-87
2023/10/24 03:01:42;;;;;;;8.85;3.00;;;12.00;99.90;;;;;;5061537;28;20036;-85
2023/10/24 03:04:08;;;;;;;11.95;3.00;;;12.00;99.90;;;;;;5062426;28;20029;-85
2023/10/24 03:06:33;;;;;;;10.18;2.88;;;12.00;99.90;;;;;;5064083;28;20029;-83
2023/10/24 03:08:59;;;;;;;8.40;3.28;;;12.00;99.90;;;;;;5065698;28;20033;-84
2023/10/24 03:11:25;;;;;;;12.35;3.63;;;12.00;99.90;;;;;;5064764;28;20033;-83
2023/10/24 03:13:55;;;;;;;8.38;3.13;;;12.00;99.90;;;;;;5063738;28;20067;-84
2023/10/24 03:16:21;;;;;;;7.43;3.25;;;12.00;99.90;;;;;;5067636;28;20541;-85
2023/10/24 03:18:47;;;;;;;9.20;2.72;;;12.00;99.90;;;;;;5061985;28;20032;-87
2023/10/24 03:21:16;;;;;;;11.00;3.83;;;12.00;99.90;;;;;;5060220;28;20036;-83
2023/10/24 03:23:41;;;;;;;12.20;3.80;;;12.00;99.90;;;;;;5067187;28;20503;-85
2023/10/24 03:26:07;;;;;;;15.85;3.97;;;12.00;99.90;;;;;;5069633;28;20033;-85
2023/10/24 03:28:34;;;;;;;12.40;3.92;;;12.00;99.90;;;;;;5069143;28;20039;-85
2023/10/24 03:31:04;;;;;;;14.73;4.10;;;12.00;99.90;;;;;;5065271;28;20106;-84
2023/10/24 03:33:31;;;;;;;7.68;3.55;;;12.00;99.90;;;;;;5067842;28;20040;-85
2023/10/24 03:35:57;;;;;;;15.05;4.65;;;12.00;99.90;;;;;;5067122;28;20055;-86
2023/10/24 03:38:24;;;;;;;9.77;4.32;;;11.90;99.90;;;;;;5054174;28;20518;-85
2023/10/24 03:40:50;;;;;;;11.05;4.40;;;12.00;99.90;;;;;;5065782;28;20116;-86
2023/10/24 03:43:16;;;;;;;8.27;3.78;;;12.00;99.90;;;;;;5065464;28;20111;-84
2023/10/24 03:45:42;;;;;;;7.95;3.22;;;11.90;99.90;;;;;;5065166;28;20032;-85
2023/10/24 03:48:11;;;;;;;12.40;3.53;;;12.00;99.90;;;;;;5063437;28;20041;-84
2023/10/24 03:50:37;;;;;;;12.00;4.13;;;12.00;99.90;;;;;;5058922;28;20043;-85
2023/10/24 03:53:04;;;;;;;7.90;3.60;;;12.00;99.90;;;;;;5062185;28;20123;-86
2023/10/24 03:55:30;;;;;;;12.95;4.05;;;12.00;99.90;;;;;;5061355;28;20035;-85
2023/10/24 03:57:56;;;;;;;13.32;3.80;;;12.00;99.90;;;;;;5062637;28;20022;-85
2023/10/24 04:00:22;;;;;;;15.07;4.05;;;12.00;99.90;;;;;;5060512;28;20032;-83
2023/10/24 04:02:52;;;;;;;10.73;4.10;;;11.90;99.90;;;;;;5066408;28;20024;-84
2023/10/24 04:05:18;;;;;;;11.88;3.70;;;12.00;99.90;;;;;;5059823;28;20028;-86
2023/10/24 04:07:44;;;;;;;9.50;4.05;;;12.00;99.90;;;;;;5064252;28;20032;-89
2023/10/24 04:10:11;;;;;;;10.95;4.30;;;12.00;99.90;;;;;;5060449;28;20024;-88
2023/10/24 04:12:40;;;;;;;13.63;3.92;;;12.00;99.90;;;;;;5071089;28;20028;-85
2023/10/24 04:15:10;;;;;;;14.10;4.00;;;12.10;99.90;;;;;;5063486;28;20484;-85
2023/10/24 04:17:36;;;;;;;9.95;3.53;;;12.00;99.90;;;;;;5067151;28;20032;-83
2023/10/24 04:20:02;;;;;;;18.20;4.10;;;12.00;99.90;;;;;;5066626;28;20020;-84
2023/10/24 04:22:32;;;;;;;14.02;4.00;;;12.00;99.90;;;;;;5068477;28;20060;-87
2023/10/24 04:24:59;;;;;;;11.07;3.67;;;12.00;99.90;;;;;;5067057;28;20493;-88
2023/10/24 04:27:24;;;;;;;12.10;3.83;;;12.00;99.90;;;;;;5066127;28;20036;-86
2023/10/24 04:29:50;;;;;;;9.27;3.70;;;12.00;99.90;;;;;;5066148;28;20473;-86
2023/10/24 04:32:16;;;;;;;14.43;4.30;;;12.00;99.90;;;;;;5065688;28;20497;-85
2023/10/24 04:34:41;;;;;;;11.90;4.68;;;12.00;99.90;;;;;;5064912;28;20041;-87
2023/10/24 04:37:07;;;;;;;18.48;3.78;;;12.00;99.90;;;;;;5067756;28;20480;-86
2023/10/24 04:39:33;;;;;;;12.73;4.95;;;12.00;99.90;;;;;;5066005;28;20400;-86
2023/10/24 04:41:59;;;;;;;13.15;4.88;;;12.10;99.90;;;;;;5064943;28;20040;-87
2023/10/24 04:44:24;;;;;;;8.63;3.38;;;12.10;99.90;;;;;;5065677;28;20029;-84
2023/10/24 04:46:50;;;;;;;11.00;4.03;;;12.00;99.90;;;;;;5063393;28;20461;-87
2023/10/24 04:49:16;;;;;;;11.75;4.13;;;12.00;99.90;;;;;;5064087;28;20059;-87
2023/10/24 04:51:43;;;;;;;13.70;4.60;;;12.00;99.90;;;;;;5056447;28;20110;-87
2023/10/24 04:54:08;;;;;;;9.77;3.45;;;12.00;99.90;;;;;;5062675;28;20342;-85
2023/10/24 04:56:37;;;;;;;7.55;3.97;;;12.00;99.90;;;;;;5061917;28;20107;-87
2023/10/24 04:59:06;;;;;;;13.73;4.20;;;12.00;99.90;;;;;;5066938;28;20476;-85
2023/10/24 05:01:37;;;;;;;20.80;4.57;;;12.00;99.90;;;;;;5067118;28;20078;-89
2023/10/24 05:04:06;;;;;;;13.57;3.97;;;12.00;99.90;;;;;;5063339;28;20017;-86
2023/10/24 05:06:32;;;;;;;11.38;4.00;;;12.10;99.90;;;;;;5066613;28;20119;-88
2023/10/24 05:08:59;;;;;;;11.43;4.15;;;12.10;99.90;;;;;;5065267;28;20086;-83
2023/10/24 05:11:30;;;;;;;11.52;3.92;;;12.00;99.90;;;;;;5057920;28;20382;-85
2023/10/24 05:13:55;;;;;;;13.98;4.10;;;12.00;99.90;;;;;;5059303;28;20215;-86
2023/10/24 05:16:21;;;;;;;14.18;3.80;;;12.00;99.90;;;;;;5056619;28;20028;-87
2023/10/24 05:18:47;;;;;;;11.07;4.60;;;12.00;99.90;;;;;;5053183;28;20465;-88
2023/10/24 05:27:56;;;;;;;8.73;3.85;;;12.00;99.90;;;;;;5092098;23;20102;-92
2023/10/24 05:30:22;;;;;;;9.10;4.10;;;11.90;99.90;;;;;;5077294;28;20035;-90
2023/10/24 05:32:48;;;;;;;8.70;4.00;;;12.00;99.90;;;;;;5081011;28;20089;-88
2023/10/24 05:35:13;;;;;;;7.93;3.78;;;12.00;99.90;;;;;;5082534;28;20032;-92
2023/10/24 05:40:09;;;;;;;9.60;4.00;;;12.00;99.90;;;;;;5075571;28;20059;-86
2023/10/24 05:42:36;;;;;;;13.27;3.95;;;12.10;99.90;;;;;;5084160;28;20039;-91
2023/10/24 05:45:02;;;;;;;18.38;4.22;;;12.10;99.90;;;;;;5084585;28;20604;-89
2023/10/24 05:47:27;;;;;;;12.75;4.28;;;12.10;99.90;;;;;;5075957;28;20028;-88
2023/10/24 05:49:55;;;;;;;7.50;3.97;;;12.10;99.90;;;;;;5082694;28;20024;-90
2023/10/24 05:52:21;;;;;;;13.98;4.63;;;12.10;99.90;;;;;;5077606;28;20020;-89
2023/10/24 05:54:46;;;;;;;10.48;4.20;;;12.10;99.90;;;;;;5081135;28;20125;-86
2023/10/24 05:57:12;;;;;;;14.05;3.90;;;12.10;99.90;;;;;;5061433;28;20077;-91
2023/10/24 05:59:38;;;;;;;13.93;4.38;;;12.10;99.90;;;;;;5062768;28;20097;-87
2023/10/24 06:02:06;;;;;;;13.75;4.57;;;12.10;99.90;;;;;;5085321;28;20118;-91
2023/10/24 06:04:34;;;;;;;14.30;4.43;;;12.20;99.90;;;;;;5080884;28;20035;-92
2023/10/24 06:07:00;;;;;;;11.85;4.35;;;12.20;99.90;;;;;;5081836;28;20679;-89
2023/10/24 06:09:25;;;;;;;9.25;3.90;;;12.20;99.90;;;;;;5081086;28;20024;-90
2023/10/24 06:11:52;;;;;;;11.93;4.15;;;12.20;99.90;;;;;;5084383;28;20027;-90
2023/10/24 06:14:17;;;;;;;14.52;4.32;;;12.10;99.90;;;;;;5077869;28;20040;-89
2023/10/24 06:16:43;;;;;;;14.40;3.88;;;12.10;99.90;;;;;;5079878;28;20089;-89
2023/10/24 06:19:08;;;;;;;8.98;3.85;;;12.10;99.90;;;;;;5081353;28;20024;-86
2023/10/24 06:21:34;;;;;;;12.65;4.13;;;12.10;99.90;;;;;;5079023;28;20032;-88
2023/10/24 06:23:59;;;;;;;10.07;4.10;;;12.10;99.90;;;;;;5084412;28;20039;-87
2023/10/24 06:26:25;;;;;;;8.52;3.60;;;12.20;99.90;;;;;;5080560;28;20016;-88
2023/10/24 06:28:51;;;;;;;16.67;4.40;;;12.10;99.90;;;;;;5081031;28;20082;-87
2023/10/24 06:31:17;;;;;;;14.93;3.78;;;12.20;99.90;;;;;;5079412;28;20123;-91
2023/10/24 06:33:46;;;;;;;10.45;3.67;;;12.20;99.90;;;;;;5073937;28;20036;-89
2023/10/24 06:36:12;;;;;;;7.97;3.25;;;12.20;99.90;;;;;;5075166;28;20052;-89
2023/10/24 06:38:38;;;;;;;8.80;3.47;;;12.20;99.90;;;;;;5082714;28;20735;-92
2023/10/24 06:41:08;;;;;;;10.63;3.65;;;12.10;99.90;;;;;;5067029;28;20020;-85
2023/10/24 06:43:35;;;;;;;13.63;3.45;;;12.20;99.90;;;;;;5052015;28;20024;-89
2023/10/24 06:46:03;;;;;;;12.68;3.70;;;12.20;99.90;;;;;;5080986;28;20040;-86
2023/10/24 06:48:31;;;;;;;10.88;3.50;;;12.20;99.90;;;;;;5085602;28;20039;-89
2023/10/24 06:50:56;;;;;;;11.68;3.47;;;12.30;99.90;;;;;;5082332;28;20545;-87
2023/10/24 06:53:22;;;;;;;8.50;3.63;;;12.30;99.90;;;;;;5081452;28;20036;-89
2023/10/24 06:55:47;;;;;;;8.13;2.90;;;12.30;99.90;;;;;;5081457;28;20024;-88
2023/10/24 06:58:16;;;;;;;12.57;3.97;;;12.30;99.90;;;;;;5081080;28;20020;-91
2023/10/24 07:00:44;;;;;;;8.85;3.20;;;12.30;99.90;;;;;;5088664;28;20016;-91
2023/10/24 07:03:09;;;;;;;9.98;3.67;;;12.30;99.90;;;;;;5067343;28;20029;-89
2023/10/24 07:05:35;;;;;;;10.13;3.70;;;12.30;99.90;;;;;;5061218;28;20087;-89
2023/10/24 07:08:00;;;;;;;10.07;3.10;;;12.30;99.90;;;;;;5066947;28;20032;-90
2023/10/24 07:10:26;;;;;;;11.23;3.10;;;12.30;99.90;;;;;;5058673;28;20540;-90
2023/10/24 07:12:52;;;;;;;5.22;2.95;;;12.30;99.90;;;;;;5060325;28;20045;-90
2023/10/24 07:15:18;;;;;;;4.05;2.65;;;12.40;99.90;;;;;;5066865;28;20103;-91
2023/10/24 07:17:46;;;;;;;10.80;3.17;;;12.30;99.90;;;;;;5060174;28;20325;-94
2023/10/24 07:20:11;;;;;;;7.65;3.40;;;12.30;99.90;;;;;;5066630;28;20488;-91
2023/10/24 07:22:37;;;;;;;15.07;3.75;;;12.30;99.90;;;;;;5058789;28;20044;-90
2023/10/24 07:25:03;;;;;;;10.90;2.50;;;12.30;99.90;;;;;;5064203;28;20028;-90
2023/10/24 07:27:29;;;;;;;6.05;2.55;;;12.40;99.90;;;;;;5061468;28;20036;-90
2023/10/24 07:29:55;;;;;;;8.68;2.80;;;12.40;99.90;;;;;;5062938;28;20025;-91
2023/10/24 07:32:20;;;;;;;12.25;3.05;;;12.50;99.90;;;;;;5066127;28;20436;-88
2023/10/24 07:34:48;;;;;;;14.85;2.90;;;12.60;99.90;;;;;;5060131;28;20032;-85
2023/10/24 07:37:14;;;;;;;9.48;3.20;;;12.60;99.90;;;;;;5063609;28;20020;-89
2023/10/24 07:39:40;;;;;;;9.73;3.35;;;12.60;99.90;;;;;;5046624;28;20051;-90
2023/10/24 07:42:05;;;;;;;7.35;3.00;;;12.60;99.90;;;;;;5063692;28;20046;-89
2023/10/24 07:44:31;;;;;;;5.55;2.42;;;12.70;99.90;;;;;;5048962;28;20036;-88
2023/10/24 07:46:56;;;;;;;10.90;3.13;;;12.70;99.90;;;;;;5064965;28;20039;-91
2023/10/24 07:49:23;;;;;;;9.63;2.70;;;12.70;99.90;;;;;;5062833;28;20413;-90
2023/10/24 07:51:49;;;;;;;13.45;4.22;;;12.70;99.90;;;;;;5044591;28;20380;-89
2023/10/24 07:54:15;;;;;;;10.98;2.45;;;12.80;99.90;;;;;;5065715;28;20071;-92
2023/10/24 07:56:43;;;;;;;7.05;2.83;;;12.80;99.90;;;;;;5060043;28;20409;-89
2023/10/24 07:59:09;;;;;;;7.40;3.00;;;12.90;99.90;;;;;;5065183;28;20032;-90
2023/10/24 08:01:35;;;;;;;13.95;2.80;;;12.80;99.90;;;;;;5058832;28;20643;-89
2023/10/24 08:04:07;;;;;;;16.55;3.85;;;12.90;99.90;;;;;;5068225;28;20033;-89
2023/10/24 08:06:33;;;;;;;9.93;3.30;;;12.90;99.90;;;;;;5058321;28;20028;-89
2023/10/24 08:08:59;;;;;;;10.60;3.13;;;13.00;99.90;;;;;;5066230;28;20035;-93
2023/10/24 08:11:24;;;;;;;9.55;3.05;;;13.10;99.90;;;;;;5068065;28;20048;-92
2023/10/24 08:13:50;;;;;;;14.55;3.42;;;13.00;99.90;;;;;;5064808;28;20044;-89
2023/10/24 08:16:17;;;;;;;5.80;2.53;;;13.00;99.90;;;;;;5063354;28;20090;-89
2023/10/24 08:18:44;;;;;;;10.18;3.45;;;13.00;99.90;;;;;;5044211;28;20028;-89
2023/10/24 08:21:11;;;;;;;10.65;2.80;;;13.00;99.90;;;;;;5060490;28;20036;-92
2023/10/24 08:23:37;;;;;;;13.43;2.85;;;13.00;99.90;;;;;;5062316;28;20500;-90
2023/10/24 08:26:03;;;;;;;3.25;2.47;;;13.00;99.90;;;;;;5060592;28;20052;-89
2023/10/24 08:28:29;;;;;;;11.48;2.70;;;13.00;99.90;;;;;;5068444;28;20021;-90
2023/10/24 08:30:54;;;;;;;4.38;2.33;;;13.00;99.90;;;;;;5063288;28;20039;-90
2023/10/24 08:33:22;;;;;;;6.70;2.47;;;13.00;99.90;;;;;;5058783;28;20029;-89
2023/10/24 08:35:48;;;;;;;6.90;2.45;;;13.00;99.90;;;;;;5057803;28;20033;-89
2023/10/24 08:38:13;;;;;;;4.22;1.95;;;13.00;99.90;;;;;;5046968;28;20055;-90
2023/10/24 08:40:43;;;;;;;11.20;3.03;;;13.10;99.90;;;;;;5059061;28;20063;-92
2023/10/24 08:43:09;;;;;;;5.10;2.10;;;13.10;99.90;;;;;;5061357;28;20401;-93
2023/10/24 08:45:35;;;;;;;8.70;3.17;;;13.10;99.90;;;;;;5066207;28;20036;-91
2023/10/24 08:48:05;;;;;;;9.63;3.22;;;13.00;99.90;;;;;;5061538;28;20060;-93
2023/10/24 08:50:41;;;;;;;5.50;2.72;;;13.10;99.90;;;;;;5063100;28;20028;-89
2023/10/24 08:53:07;;;;;;;5.60;2.92;;;13.10;99.90;;;;;;5065019;28;20041;-92
2023/10/24 08:55:33;;;;;;;6.72;2.85;;;13.20;99.90;;;;;;5042464;28;20080;-89
2023/10/24 08:58:00;;;;;;;5.78;2.53;;;13.20;99.90;;;;;;5041746;28;20051;-92
2023/10/24 09:00:27;;;;;;;10.05;2.83;;;13.20;99.90;;;;;;5060334;28;20379;-92
2023/10/24 09:02:56;;;;;;;5.38;2.60;;;13.20;99.90;;;;;;5063311;28;20055;-90
2023/10/24 09:05:27;;;;;;;2.78;2.15;;;13.10;99.90;;;;;;5040600;28;20043;-89
2023/10/24 09:07:53;;;;;;;6.57;2.75;;;13.20;99.90;;;;;;5038613;28;20051;-89
2023/10/24 09:10:20;;;;;;;6.47;2.25;;;13.20;99.90;;;;;;5058613;28;20020;-90
2023/10/24 09:12:45;;;;;;;8.02;3.22;;;13.10;99.90;;;;;;5051959;28;20326;-89
2023/10/24 09:15:11;;;;;;;5.63;2.25;;;13.20;99.90;;;;;;5060461;28;20472;-91
2023/10/24 09:17:40;;;;;;;5.18;2.60;;;13.20;99.90;;;;;;5055963;28;20032;-86
2023/10/24 09:20:07;;;;;;;7.95;2.67;;;13.20;99.90;;;;;;5066275;28;20056;-88
2023/10/24 09:22:34;;;;;;;10.30;2.70;;;13.30;99.90;;;;;;5055034;28;20265;-86
2023/10/24 09:25:01;;;;;;;6.30;3.00;;;13.40;99.90;;;;;;5041737;28;20016;-87
2023/10/24 09:27:30;;;;;;;8.00;2.30;;;13.40;99.90;;;;;;5059535;28;20029;-90
2023/10/24 09:29:56;;;;;;;7.55;2.55;;;13.50;99.90;;;;;;5055505;28;20028;-91
2023/10/24 09:32:21;;;;;;;5.05;2.67;;;13.50;99.90;;;;;;5057719;28;20040;-90
2023/10/24 09:34:48;;;;;;;14.77;2.97;;;13.50;99.90;;;;;;5053026;28;20451;-92
2023/10/24 09:37:16;;;;;;;5.95;2.50;;;13.50;99.90;;;;;;5062608;28;20031;-93
2023/10/24 09:39:59;;;;;;;8.65;2.85;;;13.50;99.90;;;;;;5057077;28;20460;-92
2023/10/24 09:42:26;;;;;;;5.50;2.47;;;13.60;99.90;;;;;;5035940;28;20452;-89
2023/10/24 09:44:58;;;;;;;8.10;2.88;;;13.60;99.90;;;;;;5060018;28;20041;-90
2023/10/24 09:47:26;;;;;;;3.47;1.95;;;13.60;99.90;;;;;;5059205;28;20028;-91
2023/10/24 09:49:53;;;;;;;9.20;2.40;;;13.70;99.90;;;;;;5062782;28;20021;-91
2023/10/24 09:52:20;;;;;;;5.47;2.42;;;13.70;99.90;;;;;;5056017;28;20476;-92
2023/10/24 09:54:49;;;;;;;5.97;2.42;;;13.70;99.90;;;;;;5066061;28;20048;-92
2023/10/24 09:57:19;;;;;;;6.25;2.40;;;13.70;99.90;;;;;;5044378;28;20721;-91
2023/10/24 09:59:57;;;;;;;4.70;2.10;;;13.70;99.90;;;;;;5068198;28;20150;-91
2023/10/24 10:02:26;;;;;;;8.07;2.70;;;13.70;99.90;;;;;;5061029;28;20032;-91
2023/10/24 10:04:52;;;;;;;9.75;2.15;;;13.70;99.90;;;;;;5063081;28;20021;-90
2023/10/24 10:07:20;;;;;;;7.97;2.70;;;13.70;99.90;;;;;;5050865;28;20028;-90
2023/10/24 10:09:50;;;;;;;6.53;2.85;;;13.70;99.90;;;;;;5062926;28;20487;-90
2023/10/24 10:12:18;;;;;;;6.88;2.80;;;13.70;99.90;;;;;;5045705;28;20029;-92
2023/10/24 10:15:26;;;;;;;7.00;3.15;;;13.90;99.90;;;;;;5061855;28;21202;-90
2023/10/24 10:18:03;;;;;;;11.80;2.90;;;14.00;99.90;;;;;;5067166;28;20406;-89
2023/10/24 10:20:38;;;;;;;6.10;2.22;;;14.00;99.90;;;;;;5067844;28;20032;-90
2023/10/24 10:23:30;;;;;;;8.85;2.55;;;14.00;99.90;;;;;;5044870;28;20094;-90
2023/10/24 10:26:03;;;;;;;5.50;2.38;;;14.00;99.90;;;;;;5070397;28;20041;-93
2023/10/24 10:29:01;;;;;;;5.57;2.40;;;14.10;99.90;;;;;;5064243;28;20091;-93
2023/10/24 10:32:00;;;;;;;5.03;2.30;;;14.10;99.90;;;;;;5067450;28;20025;-89
2023/10/24 10:34:36;;;;;;;3.35;1.75;;;14.20;99.90;;;;;;5062355;28;20044;-92
2023/10/24 10:37:02;;;;;;;3.83;1.70;;;14.10;99.90;;;;;;5063272;28;20037;-90
2023/10/24 10:39:31;;;;;;;6.00;1.65;;;14.10;99.90;;;;;;5073330;28;20039;-91
2023/10/24 10:41:59;;;;;;;5.38;2.10;;;14.00;99.90;;;;;;5066211;28;20073;-91
2023/10/24 10:44:38;;;;;;;5.72;2.03;;;14.00;99.90;;;;;;5066052;28;20028;-91
2023/10/24 10:47:06;;;;;;;5.15;2.88;;;13.90;99.90;;;;;;5067526;28;20037;-90
2023/10/24 10:49:41;;;;;;;7.22;2.75;;;14.00;99.90;;;;;;5048937;28;20494;-91
2023/10/24 10:52:26;;;;;;;;;;;14.00;99.90;;;;;;5069528;28;20154;-91
2023/10/24 10:55:11;;;;;;;5.75;2.53;;;13.90;99.90;;;;;;5067373;28;19921;-90
2023/10/24 10:58:14;;;;;;;12.57;3.55;;;13.90;99.90;;;;;;5059681;28;20036;-90
2023/10/24 11:01:11;;;;;;;6.00;2.13;;;13.90;99.90;;;;;;5042408;28;20033;-92
2023/10/24 11:03:44;;;;;;;4.05;2.00;;;13.90;99.90;;;;;;5015752;28;20060;-90
2023/10/24 11:06:17;;;;;;;8.90;2.67;;;13.90;99.90;;;;;;5066848;28;20020;-90
2023/10/24 11:08:50;;;;;;;3.35;1.83;;;13.90;99.90;;;;;;5066559;28;20032;-90
2023/10/24 11:11:19;;;;;;;9.18;1.90;;;13.90;99.90;;;;;;5067243;28;20078;-90
2023/10/24 11:13:51;;;;;;;3.50;1.70;;;13.80;99.90;;;;;;5058879;28;20036;-90
2023/10/24 11:16:17;;;;;;;6.68;2.13;;;13.80;99.90;;;;;;5065867;28;20365;-91
2023/10/24 11:18:43;;;;;;;4.32;2.03;;;13.80;99.90;;;;;;5068545;28;20025;-91
2023/10/24 11:21:14;;;;;;;10.15;2.42;;;13.90;99.90;;;;;;5071458;28;20034;-88
2023/10/24 11:23:43;;;;;;;4.32;2.17;;;13.80;99.90;;;;;;5062855;28;20032;-93
2023/10/24 11:26:09;;;;;;;3.85;2.03;;;13.90;99.90;;;;;;5063560;28;20035;-93
2023/10/24 11:28:35;;;;;;;5.68;2.20;;;13.80;99.90;;;;;;5066374;28;20032;-90
2023/10/24 11:31:22;;;;;;;8.40;2.70;;;13.90;99.90;;;;;;5069363;28;20115;-90
2023/10/24 11:33:48;;;;;;;9.43;2.20;;;13.80;99.90;;;;;;5064775;28;20127;-87
2023/10/24 11:36:15;;;;;;;5.32;2.08;;;13.80;99.90;;;;;;5058108;28;20036;-92
2023/10/24 11:38:41;;;;;;;3.90;1.85;;;13.80;99.90;;;;;;5063935;28;20049;-92
2023/10/24 11:41:06;;;;;;;3.97;2.30;;;13.80;99.90;;;;;;5048290;28;20031;-91
2023/10/24 11:43:32;;;;;;;4.13;1.80;;;13.70;99.90;;;;;;5060880;28;20595;-89
2023/10/24 11:45:59;;;;;;;4.20;2.20;;;13.70;99.90;;;;;;5069244;28;20036;-89
2023/10/24 11:48:25;;;;;;;3.47;1.67;;;13.70;99.90;;;;;;5049437;28;20025;-90
2023/10/24 11:50:50;;;;;;;5.90;2.20;;;13.70;99.90;;;;;;5051746;28;20028;-89
2023/10/24 11:53:20;;;;;;;5.53;2.22;;;13.70;99.90;;;;;;5059783;28;20472;-88
2023/10/24 11:55:49;;;;;;;8.45;1.80;;;13.70;99.90;;;;;;5060758;28;20043;-91
2023/10/24 11:58:15;;;;;;;3.35;1.77;;;13.70;99.90;;;;;;5047506;28;20069;-90
2023/10/24 12:00:43;;;;;;;3.22;1.50;;;13.70;99.90;;;;;;5058513;28;20104;-89
2023/10/24 12:03:09;;;;;;;3.28;1.60;;;13.70;99.90;;;;;;5061931;28;20031;-93
2023/10/24 12:05:35;;;;;;;2.50;1.40;;;13.60;99.90;;;;;;5062606;28;20028;-91
2023/10/24 12:08:03;;;;;;;3.55;2.05;;;13.60;99.90;;;;;;5042431;28;20032;-90
2023/10/24 12:10:30;;;;;;;4.80;1.83;;;13.60;99.90;;;;;;5051694;28;20242;-88
2023/10/24 12:13:04;;;;;;;4.85;2.03;;;13.60;99.90;;;;;;5042449;28;20032;-87
2023/10/24 12:15:30;;;;;;;6.72;2.45;;;13.60;99.90;;;;;;5062354;28;20032;-88
2023/10/24 12:18:06;;;;;;;8.70;2.10;;;13.60;99.90;;;;;;5058781;28;20028;-88
2023/10/24 12:20:32;;;;;;;3.38;2.03;;;13.50;99.90;;;;;;5059791;28;20111;-88
2023/10/24 12:22:57;;;;;;;4.85;2.00;;;13.50;99.90;;;;;;5060253;28;20031;-88
2023/10/24 12:25:28;;;;;;;8.25;2.20;;;13.50;99.90;;;;;;5061764;28;20025;-93
2023/10/24 12:27:54;;;;;;;4.32;1.70;;;13.50;99.90;;;;;;5064341;28;20040;-93
2023/10/24 12:30:19;;;;;;;4.50;2.17;;;13.50;99.90;;;;;;5057445;28;20493;-88
2023/10/24 12:32:45;;;;;;;6.40;2.17;;;13.50;99.90;;;;;;5062494;28;20756;-86
2023/10/24 12:35:10;;;;;;;6.00;2.42;;;13.40;99.90;;;;;;5055204;28;20055;-90
2023/10/24 12:37:37;;;;;;;3.30;1.80;;;13.40;99.90;;;;;;5062189;28;20060;-88
2023/10/24 12:40:06;;;;;;;10.57;3.35;;;13.40;99.90;;;;;;5058369;28;20036;-87
2023/10/24 12:42:36;;;;;;;2.92;2.47;;;13.40;99.90;;;;;;5038849;28;20036;-87
2023/10/24 12:45:02;;;;;;;11.02;2.97;;;13.40;99.90;;;;;;5061904;28;20048;-87
2023/10/24 12:47:32;;;;;;;12.10;3.22;;;13.40;99.90;;;;;;5057389;28;20029;-90
2023/10/24 12:49:58;;;;;;;8.05;2.92;;;13.50;99.90;;;;;;5050079;28;20040;-87
2023/10/24 12:52:24;;;;;;;6.25;2.50;;;13.40;99.90;;;;;;5057783;28;20131;-88
2023/10/24 12:54:50;;;;;;;9.35;3.08;;;13.40;99.90;;;;;;5067523;28;20123;-87